createdAt,value
2018-10-05T00:00:40.508Z,998.35
2018-10-05T00:01:40.652Z,998.37
2018-10-05T00:02:40.799Z,998.36
2018-10-05T00:03:40.948Z,998.41
2018-10-05T00:04:41.096Z,998.34
2018-10-05T00:05:41.243Z,998.31
2018-10-05T00:06:41.389Z,998.30
2018-10-05T00:07:41.534Z,998.29
2018-10-05T00:08:41.683Z,998.31
2018-10-05T00:09:41.833Z,998.30
2018-10-05T00:10:41.980Z,998.28
2018-10-05T00:11:42.130Z,998.32
2018-10-05T00:12:42.284Z,998.31
2018-10-05T00:13:42.427Z,998.31
2018-10-05T00:14:42.577Z,998.28
2018-10-05T00:15:42.725Z,998.30
2018-10-05T00:16:42.875Z,998.31
2018-10-05T00:17:43.022Z,998.30
2018-10-05T00:18:43.168Z,998.28
2018-10-05T00:19:43.351Z,998.28
2018-10-05T00:20:43.502Z,998.24
2018-10-05T00:21:43.647Z,998.24
2018-10-05T00:22:43.796Z,998.25
2018-10-05T00:23:43.942Z,998.25
2018-10-05T00:24:44.096Z,998.25
2018-10-05T00:25:44.240Z,998.24
2018-10-05T00:26:44.387Z,998.23
2018-10-05T00:27:44.534Z,998.26
2018-10-05T00:28:44.685Z,998.22
2018-10-05T00:29:44.830Z,998.22
2018-10-05T00:30:44.980Z,998.14
2018-10-05T00:31:45.126Z,998.12
2018-10-05T00:32:45.276Z,998.19
2018-10-05T00:33:45.424Z,998.15
2018-10-05T00:34:45.573Z,998.14
2018-10-05T00:35:45.720Z,998.15
2018-10-05T00:36:45.870Z,998.11
2018-10-05T00:37:46.061Z,998.10
2018-10-05T00:38:46.168Z,998.07
2018-10-05T00:39:46.315Z,998.06
2018-10-05T00:40:46.507Z,998.06
2018-10-05T00:41:46.614Z,998.05
2018-10-05T00:42:46.762Z,998.02
2018-10-05T00:43:46.911Z,998.04
2018-10-05T00:44:47.058Z,998.06
2018-10-05T00:45:47.212Z,998.05
2018-10-05T00:46:47.357Z,998.04
2018-10-05T00:47:47.505Z,998.04
2018-10-05T00:48:47.654Z,998.07
2018-10-05T00:49:47.802Z,998.05
2018-10-05T00:50:47.952Z,998.01
2018-10-05T00:51:48.098Z,998.02
2018-10-05T00:52:48.259Z,997.99
2018-10-05T00:53:48.395Z,997.96
2018-10-05T00:54:48.546Z,997.91
2018-10-05T00:55:48.698Z,997.93
2018-10-05T00:56:48.841Z,997.91
2018-10-05T00:57:48.989Z,997.93
2018-10-05T00:58:49.137Z,997.88
2018-10-05T00:59:49.292Z,997.91
2018-10-05T01:00:49.436Z,997.88
2018-10-05T01:01:49.603Z,997.86
2018-10-05T01:02:49.731Z,997.86
2018-10-05T01:03:49.878Z,997.84
2018-10-05T01:04:50.025Z,997.83
2018-10-05T01:05:50.173Z,997.88
2018-10-05T01:06:50.322Z,997.86
2018-10-05T01:07:50.470Z,997.83
2018-10-05T01:08:50.616Z,997.82
2018-10-05T01:09:50.757Z,997.79
2018-10-05T01:10:50.902Z,997.79
2018-10-05T01:11:51.053Z,997.82
2018-10-05T01:12:51.199Z,997.81
2018-10-05T01:13:51.345Z,997.81
2018-10-05T01:14:51.493Z,997.76
2018-10-05T01:15:51.640Z,997.81
2018-10-05T01:16:51.786Z,997.80
2018-10-05T01:17:51.941Z,997.83
2018-10-05T01:18:52.085Z,997.81
2018-10-05T01:19:52.232Z,997.84
2018-10-05T01:20:52.388Z,997.80
2018-10-05T01:21:52.533Z,997.79
2018-10-05T01:22:52.682Z,997.83
2018-10-05T01:23:52.826Z,997.77
2018-10-05T01:24:53.008Z,997.78
2018-10-05T01:25:53.137Z,997.74
2018-10-05T01:26:53.282Z,997.75
2018-10-05T01:27:53.430Z,997.72
2018-10-05T01:28:53.576Z,997.68
2018-10-05T01:29:53.724Z,997.66
2018-10-05T01:30:53.872Z,997.68
2018-10-05T01:31:54.021Z,997.65
2018-10-05T01:32:54.175Z,997.69
2018-10-05T01:33:54.322Z,997.68
2018-10-05T01:34:54.471Z,997.68
2018-10-05T01:35:54.617Z,997.67
2018-10-05T01:36:54.767Z,997.66
2018-10-05T01:37:54.915Z,997.62
2018-10-05T01:38:55.170Z,997.59
2018-10-05T01:39:55.212Z,997.58
2018-10-05T01:40:55.361Z,997.56
2018-10-05T01:41:55.507Z,997.58
2018-10-05T01:42:55.657Z,997.59
2018-10-05T01:43:55.805Z,997.61
2018-10-05T01:44:55.952Z,997.63
2018-10-05T01:45:56.105Z,997.57
2018-10-05T01:46:56.249Z,997.56
2018-10-05T01:47:56.399Z,997.55
2018-10-05T01:48:56.547Z,997.55
2018-10-05T01:49:56.696Z,997.55
2018-10-05T01:50:56.846Z,997.55
2018-10-05T01:51:56.995Z,997.51
2018-10-05T01:52:57.144Z,997.50
2018-10-05T01:53:57.290Z,997.48
2018-10-05T01:54:57.487Z,997.45
2018-10-05T01:55:57.584Z,997.45
2018-10-05T01:56:57.731Z,997.43
2018-10-05T01:57:57.879Z,997.42
2018-10-05T01:58:58.028Z,997.38
2018-10-05T01:59:58.180Z,997.39
2018-10-05T02:00:58.321Z,997.39
2018-10-05T02:01:58.470Z,997.41
2018-10-05T02:02:58.627Z,997.38
2018-10-05T02:03:58.766Z,997.37
2018-10-05T02:04:58.915Z,997.38
2018-10-05T02:05:59.064Z,997.32
2018-10-05T02:06:59.214Z,997.32
2018-10-05T02:07:59.356Z,997.34
2018-10-05T02:08:59.505Z,997.33
2018-10-05T02:09:59.652Z,997.33
2018-10-05T02:10:59.802Z,997.37
2018-10-05T02:11:59.951Z,997.30
2018-10-05T02:13:00.099Z,997.32
2018-10-05T02:14:00.248Z,997.28
2018-10-05T02:15:00.395Z,997.30
2018-10-05T02:16:00.537Z,997.28
2018-10-05T02:17:00.677Z,997.26
2018-10-05T02:18:00.823Z,997.25
2018-10-05T02:19:00.972Z,997.28
2018-10-05T02:20:01.121Z,997.26
2018-10-05T02:21:01.266Z,997.26
2018-10-05T02:22:01.415Z,997.24
2018-10-05T02:23:01.562Z,997.21
2018-10-05T02:24:01.713Z,997.23
2018-10-05T02:25:01.859Z,997.21
2018-10-05T02:26:02.007Z,997.15
2018-10-05T02:27:02.152Z,997.15
2018-10-05T02:28:02.302Z,997.14
2018-10-05T02:29:02.453Z,997.15
2018-10-05T02:30:02.603Z,997.14
2018-10-05T02:31:02.747Z,997.18
2018-10-05T02:32:02.893Z,997.14
2018-10-05T02:33:03.086Z,997.14
2018-10-05T02:34:03.187Z,997.11
2018-10-05T02:35:03.337Z,997.14
2018-10-05T02:36:03.489Z,997.08
2018-10-05T02:37:03.636Z,997.08
2018-10-05T02:38:03.780Z,997.11
2018-10-05T02:39:03.926Z,997.08
2018-10-05T02:40:04.085Z,997.08
2018-10-05T02:41:04.224Z,997.08
2018-10-05T02:42:04.372Z,997.06
2018-10-05T02:43:04.523Z,997.04
2018-10-05T02:44:04.668Z,997.02
2018-10-05T02:45:04.825Z,997.03
2018-10-05T02:46:04.963Z,997.01
2018-10-05T02:47:05.112Z,997.02
2018-10-05T02:48:05.262Z,997.00
2018-10-05T02:49:05.410Z,996.99
2018-10-05T02:50:05.557Z,997.01
2018-10-05T02:51:05.707Z,996.97
2018-10-05T02:52:05.862Z,996.96
2018-10-05T02:53:06.005Z,996.97
2018-10-05T02:54:06.153Z,996.99
2018-10-05T02:55:06.302Z,997.02
2018-10-05T02:56:06.452Z,997.00
2018-10-05T02:57:06.596Z,997.01
2018-10-05T02:58:06.745Z,997.00
2018-10-05T02:59:06.893Z,997.00
2018-10-05T03:00:07.041Z,996.97
2018-10-05T03:01:07.189Z,996.98
2018-10-05T03:02:07.340Z,996.99
2018-10-05T03:03:07.488Z,996.97
2018-10-05T03:04:07.635Z,997.00
2018-10-05T03:05:07.787Z,996.96
2018-10-05T03:06:07.937Z,996.98
2018-10-05T03:07:08.085Z,997.00
2018-10-05T03:08:08.232Z,997.02
2018-10-05T03:09:08.382Z,997.00
2018-10-05T03:10:08.527Z,997.06
2018-10-05T03:11:08.676Z,997.05
2018-10-05T03:12:08.823Z,997.01
2018-10-05T03:13:08.973Z,997.03
2018-10-05T03:14:09.119Z,997.00
2018-10-05T03:15:09.268Z,997.03
2018-10-05T03:16:09.416Z,996.99
2018-10-05T03:17:09.564Z,996.99
2018-10-05T03:18:09.714Z,996.95
2018-10-05T03:19:09.859Z,996.96
2018-10-05T03:20:10.006Z,996.97
2018-10-05T03:21:10.154Z,996.95
2018-10-05T03:22:10.303Z,996.97
2018-10-05T03:23:10.452Z,996.99
2018-10-05T03:24:10.597Z,996.96
2018-10-05T03:25:10.743Z,997.01
2018-10-05T03:26:10.891Z,997.04
2018-10-05T03:27:11.040Z,997.02
2018-10-05T03:28:11.187Z,997.03
2018-10-05T03:29:11.337Z,997.05
2018-10-05T03:30:11.486Z,997.04
2018-10-05T03:31:11.632Z,997.03
2018-10-05T03:32:11.780Z,996.99
2018-10-05T03:33:11.931Z,996.95
2018-10-05T03:34:12.083Z,996.96
2018-10-05T03:35:12.229Z,996.93
2018-10-05T03:36:12.376Z,996.89
2018-10-05T03:37:12.528Z,996.85
2018-10-05T03:38:12.671Z,996.83
2018-10-05T03:39:12.821Z,996.87
2018-10-05T03:40:12.971Z,996.87
2018-10-05T03:41:13.120Z,996.88
2018-10-05T03:42:13.267Z,996.87
2018-10-05T03:43:13.413Z,996.84
2018-10-05T03:44:13.563Z,996.84
2018-10-05T03:45:13.712Z,996.81
2018-10-05T03:46:13.861Z,996.75
2018-10-05T03:47:14.005Z,996.71
2018-10-05T03:48:14.151Z,996.67
2018-10-05T03:49:14.299Z,996.70
2018-10-05T03:50:14.454Z,996.66
2018-10-05T03:51:14.597Z,996.68
2018-10-05T03:52:14.746Z,996.68
2018-10-05T03:53:14.898Z,996.67
2018-10-05T03:54:15.043Z,996.64
2018-10-05T03:55:15.189Z,996.63
2018-10-05T03:56:15.335Z,996.64
2018-10-05T03:57:15.483Z,996.67
2018-10-05T03:58:15.630Z,996.64
2018-10-05T03:59:15.779Z,996.66
2018-10-05T04:00:15.928Z,996.66
2018-10-05T04:01:16.075Z,996.73
2018-10-05T04:02:16.225Z,996.72
2018-10-05T04:03:16.372Z,996.69
2018-10-05T04:04:16.518Z,996.71
2018-10-05T04:05:16.667Z,996.71
2018-10-05T04:06:16.815Z,996.69
2018-10-05T04:07:16.963Z,996.68
2018-10-05T04:08:17.113Z,996.68
2018-10-05T04:09:17.261Z,996.69
2018-10-05T04:10:17.408Z,996.67
2018-10-05T04:11:17.556Z,996.68
2018-10-05T04:12:17.703Z,996.63
2018-10-05T04:13:17.852Z,996.64
2018-10-05T04:14:17.994Z,996.62
2018-10-05T04:15:18.143Z,996.61
2018-10-05T04:16:18.293Z,996.61
2018-10-05T04:17:18.440Z,996.62
2018-10-05T04:18:18.590Z,996.63
2018-10-05T04:19:18.736Z,996.68
2018-10-05T04:20:18.886Z,996.64
2018-10-05T04:21:19.035Z,996.68
2018-10-05T04:22:19.180Z,996.70
2018-10-05T04:23:19.342Z,996.71
2018-10-05T04:24:19.483Z,996.67
2018-10-05T04:25:19.631Z,996.71
2018-10-05T04:26:19.775Z,996.69
2018-10-05T04:27:19.976Z,996.73
2018-10-05T04:28:20.065Z,996.73
2018-10-05T04:29:20.216Z,996.71
2018-10-05T04:30:20.364Z,996.70
2018-10-05T04:31:20.518Z,996.69
2018-10-05T04:32:20.660Z,996.70
2018-10-05T04:33:20.845Z,996.68
2018-10-05T04:34:20.954Z,996.65
2018-10-05T04:35:21.108Z,996.63
2018-10-05T04:36:21.253Z,996.63
2018-10-05T04:37:21.391Z,996.65
2018-10-05T04:38:21.541Z,996.66
2018-10-05T04:39:21.690Z,996.68
2018-10-05T04:40:21.836Z,996.67
2018-10-05T04:41:22.013Z,996.66
2018-10-05T04:42:22.128Z,996.63
2018-10-05T04:43:22.279Z,996.62
2018-10-05T04:44:22.425Z,996.65
2018-10-05T04:45:22.570Z,996.66
2018-10-05T04:46:22.718Z,996.67
2018-10-05T04:47:22.866Z,996.63
2018-10-05T04:48:23.015Z,996.65
2018-10-05T04:49:23.232Z,996.64
2018-10-05T04:50:23.313Z,996.68
2018-10-05T04:51:23.456Z,996.66
2018-10-05T04:52:23.601Z,996.64
2018-10-05T04:53:23.752Z,996.56
2018-10-05T04:54:23.895Z,996.56
2018-10-05T04:55:24.045Z,996.59
2018-10-05T04:56:24.194Z,996.55
2018-10-05T04:57:24.339Z,996.58
2018-10-05T04:58:24.485Z,996.52
2018-10-05T04:59:24.635Z,996.53
2018-10-05T05:00:24.785Z,996.55
2018-10-05T05:01:24.933Z,996.52
2018-10-05T05:02:25.079Z,996.50
2018-10-05T05:03:25.261Z,996.50
2018-10-05T05:04:25.372Z,996.45
2018-10-05T05:05:25.519Z,996.44
2018-10-05T05:06:25.669Z,996.45
2018-10-05T05:07:25.813Z,996.43
2018-10-05T05:08:25.978Z,996.47
2018-10-05T05:09:26.104Z,996.45
2018-10-05T05:10:26.251Z,996.47
2018-10-05T05:11:26.398Z,996.49
2018-10-05T05:12:26.545Z,996.50
2018-10-05T05:13:26.696Z,996.47
2018-10-05T05:14:26.844Z,996.50
2018-10-05T05:15:26.993Z,996.47
2018-10-05T05:16:27.137Z,996.48
2018-10-05T05:17:27.286Z,996.50
2018-10-05T05:18:27.431Z,996.48
2018-10-05T05:19:27.636Z,996.47
2018-10-05T05:20:27.725Z,996.46
2018-10-05T05:21:27.874Z,996.49
2018-10-05T05:22:28.020Z,996.49
2018-10-05T05:23:28.168Z,996.51
2018-10-05T05:24:28.315Z,996.49
2018-10-05T05:25:28.463Z,996.45
2018-10-05T05:26:28.610Z,996.47
2018-10-05T05:27:28.757Z,996.46
2018-10-05T05:28:28.908Z,996.48
2018-10-05T05:29:29.052Z,996.48
2018-10-05T05:30:29.202Z,996.48
2018-10-05T05:31:29.350Z,996.43
2018-10-05T05:32:29.493Z,996.47
2018-10-05T05:33:29.671Z,996.45
2018-10-05T05:34:29.793Z,996.45
2018-10-05T05:35:29.940Z,996.44
2018-10-05T05:36:30.091Z,996.45
2018-10-05T05:37:30.239Z,996.50
2018-10-05T05:38:30.385Z,996.46
2018-10-05T05:39:30.533Z,996.50
2018-10-05T05:40:30.679Z,996.50
2018-10-05T05:41:30.826Z,996.51
2018-10-05T05:42:30.972Z,996.52
2018-10-05T05:43:31.118Z,996.52
2018-10-05T05:44:31.266Z,996.52
2018-10-05T05:45:31.415Z,996.53
2018-10-05T05:46:31.563Z,996.54
2018-10-05T05:47:31.714Z,996.58
2018-10-05T05:48:31.858Z,996.57
2018-10-05T05:49:32.003Z,996.57
2018-10-05T05:50:32.152Z,996.61
2018-10-05T05:51:32.306Z,996.63
2018-10-05T05:52:32.445Z,996.60
2018-10-05T05:53:32.594Z,996.63
2018-10-05T05:54:32.820Z,996.61
2018-10-05T05:55:32.897Z,996.64
2018-10-05T05:56:33.042Z,996.65
2018-10-05T05:57:33.188Z,996.67
2018-10-05T05:58:33.336Z,996.63
2018-10-05T05:59:33.486Z,996.61
2018-10-05T06:00:33.632Z,996.63
2018-10-05T06:01:33.780Z,996.60
2018-10-05T06:02:33.928Z,996.64
2018-10-05T06:03:34.077Z,996.62
2018-10-05T06:04:34.226Z,996.59
2018-10-05T06:05:34.373Z,996.60
2018-10-05T06:06:34.519Z,996.59
2018-10-05T06:07:34.668Z,996.60
2018-10-05T06:08:34.818Z,996.58
2018-10-05T06:09:34.964Z,996.58
2018-10-05T06:10:35.114Z,996.54
2018-10-05T06:11:35.268Z,996.56
2018-10-05T06:12:35.413Z,996.49
2018-10-05T06:13:35.558Z,996.49
2018-10-05T06:14:35.705Z,996.45
2018-10-05T06:15:35.860Z,996.47
2018-10-05T06:16:36.081Z,996.48
2018-10-05T06:17:36.160Z,996.42
2018-10-05T06:18:36.299Z,996.46
2018-10-05T06:19:36.450Z,996.48
2018-10-05T06:20:36.597Z,996.43
2018-10-05T06:21:36.780Z,996.45
2018-10-05T06:22:36.931Z,996.46
2018-10-05T06:23:37.039Z,996.46
2018-10-05T06:24:37.186Z,996.46
2018-10-05T06:25:37.332Z,996.44
2018-10-05T06:26:37.481Z,996.48
2018-10-05T06:27:37.627Z,996.52
2018-10-05T06:28:37.774Z,996.52
2018-10-05T06:29:37.926Z,996.50
2018-10-05T06:30:38.132Z,996.52
2018-10-05T06:31:38.221Z,996.46
2018-10-05T06:32:38.369Z,996.44
2018-10-05T06:33:38.510Z,996.46
2018-10-05T06:34:38.668Z,996.43
2018-10-05T06:35:38.816Z,996.48
2018-10-05T06:36:38.965Z,996.44
2018-10-05T06:37:39.111Z,996.46
2018-10-05T06:38:39.259Z,996.49
2018-10-05T06:39:39.405Z,996.48
2018-10-05T06:40:39.551Z,996.52
2018-10-05T06:41:39.700Z,996.48
2018-10-05T06:42:39.848Z,996.48
2018-10-05T06:43:39.997Z,996.49
2018-10-05T06:44:40.142Z,996.53
2018-10-05T06:45:40.294Z,996.50
2018-10-05T06:46:40.440Z,996.53
2018-10-05T06:47:40.590Z,996.54
2018-10-05T06:48:40.738Z,996.53
2018-10-05T06:49:40.887Z,996.59
2018-10-05T06:50:41.036Z,996.54
2018-10-05T06:51:41.185Z,996.56
2018-10-05T06:52:41.334Z,996.57
2018-10-05T06:53:41.483Z,996.60
2018-10-05T06:54:41.634Z,996.60
2018-10-05T06:55:41.775Z,996.62
2018-10-05T06:56:41.922Z,996.62
2018-10-05T06:57:42.069Z,996.66
2018-10-05T06:58:42.216Z,996.65
2018-10-05T06:59:42.366Z,996.63
2018-10-05T07:00:42.514Z,996.71
2018-10-05T07:01:42.668Z,996.64
2018-10-05T07:02:42.814Z,996.69
2018-10-05T07:03:42.961Z,996.70
2018-10-05T07:04:43.108Z,996.68
2018-10-05T07:05:43.255Z,996.68
2018-10-05T07:06:43.404Z,996.68
2018-10-05T07:07:43.595Z,996.72
2018-10-05T07:08:43.693Z,996.68
2018-10-05T07:09:43.839Z,996.69
2018-10-05T07:10:43.988Z,996.73
2018-10-05T07:11:44.137Z,996.72
2018-10-05T07:12:44.286Z,996.73
2018-10-05T07:13:44.434Z,996.70
2018-10-05T07:14:44.583Z,996.74
2018-10-05T07:15:44.754Z,996.73
2018-10-05T07:16:44.877Z,996.72
2018-10-05T07:17:45.027Z,996.75
2018-10-05T07:18:45.178Z,996.72
2018-10-05T07:19:45.324Z,996.70
2018-10-05T07:20:45.472Z,996.68
2018-10-05T07:21:45.623Z,996.69
2018-10-05T07:22:45.769Z,996.65
2018-10-05T07:23:45.920Z,996.68
2018-10-05T07:24:46.067Z,996.67
2018-10-05T07:25:46.216Z,996.67
2018-10-05T07:26:46.369Z,996.64
2018-10-05T07:27:46.520Z,996.64
2018-10-05T07:28:46.673Z,996.63
2018-10-05T07:29:46.814Z,996.66
2018-10-05T07:30:46.960Z,996.64
2018-10-05T07:31:47.109Z,996.61
2018-10-05T07:32:47.257Z,996.62
2018-10-05T07:33:47.404Z,996.59
2018-10-05T07:34:47.555Z,996.59
2018-10-05T07:35:47.702Z,996.62
2018-10-05T07:36:47.867Z,996.65
2018-10-05T07:37:48.000Z,996.62
2018-10-05T07:38:48.147Z,996.64
2018-10-05T07:39:48.292Z,996.66
2018-10-05T07:40:48.442Z,996.65
2018-10-05T07:41:48.592Z,996.68
2018-10-05T07:42:48.747Z,996.65
2018-10-05T07:43:48.891Z,996.66
2018-10-05T07:44:49.041Z,996.70
2018-10-05T07:45:49.188Z,996.67
2018-10-05T07:46:49.339Z,996.72
2018-10-05T07:47:49.490Z,996.74
2018-10-05T07:48:49.634Z,996.75
2018-10-05T07:49:49.784Z,996.74
2018-10-05T07:50:49.936Z,996.73
2018-10-05T07:51:50.152Z,996.79
2018-10-05T07:52:50.231Z,996.79
2018-10-05T07:53:50.383Z,996.76
2018-10-05T07:54:50.531Z,996.78
2018-10-05T07:55:50.680Z,996.78
2018-10-05T07:56:50.824Z,996.81
2018-10-05T07:57:51.020Z,996.77
2018-10-05T07:58:51.120Z,996.82
2018-10-05T07:59:51.302Z,996.84
2018-10-05T08:00:51.451Z,996.82
2018-10-05T08:01:51.605Z,996.83
2018-10-05T08:02:51.752Z,996.81
2018-10-05T08:03:51.902Z,996.83
2018-10-05T08:04:52.053Z,996.84
2018-10-05T08:05:52.201Z,996.80
2018-10-05T08:06:52.348Z,996.84
2018-10-05T08:07:52.499Z,996.81
2018-10-05T08:08:52.647Z,996.76
2018-10-05T08:09:52.797Z,996.79
2018-10-05T08:10:52.948Z,996.77
2018-10-05T08:11:53.101Z,996.75
2018-10-05T08:12:53.247Z,996.76
2018-10-05T08:13:53.395Z,996.71
2018-10-05T08:14:53.544Z,996.70
2018-10-05T08:15:53.695Z,996.71
2018-10-05T08:16:53.844Z,996.72
2018-10-05T08:17:53.992Z,996.63
2018-10-05T08:18:54.143Z,996.66
2018-10-05T08:19:54.292Z,996.68
2018-10-05T08:20:54.452Z,996.70
2018-10-05T08:21:54.591Z,996.66
2018-10-05T08:22:54.737Z,996.65
2018-10-05T08:23:54.889Z,996.66
2018-10-05T08:24:55.036Z,996.61
2018-10-05T08:25:55.184Z,996.61
2018-10-05T08:26:55.364Z,996.59
2018-10-05T08:27:55.519Z,996.57
2018-10-05T08:28:55.633Z,996.60
2018-10-05T08:29:55.782Z,996.55
2018-10-05T08:30:55.931Z,996.53
2018-10-05T08:31:56.106Z,996.54
2018-10-05T08:32:56.232Z,996.55
2018-10-05T08:33:56.460Z,996.52
2018-10-05T08:34:56.535Z,996.50
2018-10-05T08:35:56.680Z,996.55
2018-10-05T08:36:56.828Z,996.55
2018-10-05T08:37:56.978Z,996.51
2018-10-05T08:38:57.130Z,996.49
2018-10-05T08:39:57.344Z,996.51
2018-10-05T08:40:57.426Z,996.43
2018-10-05T08:41:57.573Z,996.48
2018-10-05T08:42:57.727Z,996.47
2018-10-05T08:43:57.873Z,996.38
2018-10-05T08:44:58.025Z,996.41
2018-10-05T08:45:58.192Z,996.41
2018-10-05T08:46:58.323Z,996.38
2018-10-05T08:47:58.473Z,996.39
2018-10-05T08:48:58.622Z,996.38
2018-10-05T08:49:58.774Z,996.41
2018-10-05T08:50:58.923Z,996.38
2018-10-05T08:51:59.114Z,996.38
2018-10-05T08:52:59.224Z,996.33
2018-10-05T08:53:59.373Z,996.33
2018-10-05T08:54:59.525Z,996.34
2018-10-05T08:55:59.674Z,996.36
2018-10-05T08:56:59.823Z,996.35
2018-10-05T08:57:59.973Z,996.34
2018-10-05T08:59:00.124Z,996.37
2018-10-05T09:00:00.343Z,996.33
2018-10-05T09:01:00.425Z,996.35
2018-10-05T09:02:00.574Z,996.39
2018-10-05T09:03:00.723Z,996.32
2018-10-05T09:04:00.875Z,996.34
2018-10-05T09:05:01.026Z,996.33
2018-10-05T09:06:01.177Z,996.34
2018-10-05T09:07:01.322Z,996.29
2018-10-05T09:08:01.468Z,996.28
2018-10-05T09:09:01.619Z,996.25
2018-10-05T09:10:01.770Z,996.23
2018-10-05T09:11:01.923Z,996.19
2018-10-05T09:12:02.073Z,996.20
2018-10-05T09:13:02.225Z,996.16
2018-10-05T09:14:02.373Z,996.15
2018-10-05T09:15:02.525Z,996.14
2018-10-05T09:16:02.674Z,996.14
2018-10-05T09:17:02.824Z,996.10
2018-10-05T09:18:03.031Z,996.08
2018-10-05T09:19:03.125Z,996.08
2018-10-05T09:20:03.277Z,996.01
2018-10-05T09:21:03.442Z,996.03
2018-10-05T09:22:03.572Z,995.94
2018-10-05T09:23:03.721Z,995.97
2018-10-05T09:24:03.893Z,995.95
2018-10-05T09:25:04.021Z,995.91
2018-10-05T09:26:04.173Z,995.94
2018-10-05T09:27:04.322Z,995.91
2018-10-05T09:28:04.474Z,995.86
2018-10-05T09:29:04.624Z,995.90
2018-10-05T09:30:04.774Z,995.88
2018-10-05T09:31:04.924Z,995.88
2018-10-05T09:32:05.073Z,995.86
2018-10-05T09:33:05.223Z,995.82
2018-10-05T09:34:05.374Z,995.83
2018-10-05T09:35:05.526Z,995.80
2018-10-05T09:36:05.676Z,995.78
2018-10-05T09:37:05.825Z,995.74
2018-10-05T09:38:05.977Z,995.71
2018-10-05T09:39:06.128Z,995.72
2018-10-05T09:40:06.279Z,995.69
2018-10-05T09:41:06.430Z,995.68
2018-10-05T09:42:06.580Z,995.65
2018-10-05T09:43:06.730Z,995.59
2018-10-05T09:44:06.881Z,995.61
2018-10-05T09:45:07.037Z,995.59
2018-10-05T09:46:07.180Z,995.60
2018-10-05T09:47:07.333Z,995.57
2018-10-05T09:48:07.486Z,995.53
2018-10-05T09:49:07.636Z,995.52
2018-10-05T09:50:07.787Z,995.49
2018-10-05T09:51:07.939Z,995.50
2018-10-05T09:52:08.095Z,995.47
2018-10-05T09:53:08.242Z,995.49
2018-10-05T09:54:08.393Z,995.45
2018-10-05T09:55:08.545Z,995.42
2018-10-05T09:56:08.697Z,995.42
2018-10-05T09:57:08.846Z,995.33
2018-10-05T09:58:08.999Z,995.36
2018-10-05T09:59:09.148Z,995.35
2018-10-05T10:00:09.353Z,995.31
2018-10-05T10:01:09.449Z,995.31
2018-10-05T10:02:09.602Z,995.26
2018-10-05T10:03:09.753Z,995.27
2018-10-05T10:04:09.904Z,995.23
2018-10-05T10:05:10.057Z,995.22
2018-10-05T10:06:10.208Z,995.24
2018-10-05T10:07:10.358Z,995.21
2018-10-05T10:08:10.630Z,995.19
2018-10-05T10:09:10.664Z,995.21
2018-10-05T10:10:10.813Z,995.18
2018-10-05T10:11:10.964Z,995.13
2018-10-05T10:12:11.117Z,995.13
2018-10-05T10:13:11.269Z,995.11
2018-10-05T10:14:11.419Z,995.11
2018-10-05T10:15:11.577Z,995.09
2018-10-05T10:16:11.722Z,995.09
2018-10-05T10:17:11.876Z,995.06
2018-10-05T10:18:12.030Z,995.05
2018-10-05T10:19:12.181Z,995.02
2018-10-05T10:20:12.336Z,994.97
2018-10-05T10:21:12.486Z,994.96
2018-10-05T10:22:12.643Z,994.99
2018-10-05T10:23:12.793Z,994.94
2018-10-05T10:24:12.944Z,994.94
2018-10-05T10:25:13.101Z,994.92
2018-10-05T10:26:13.253Z,994.94
2018-10-05T10:27:13.410Z,994.87
2018-10-05T10:28:13.594Z,994.87
2018-10-05T10:29:13.750Z,994.85
2018-10-05T10:30:13.876Z,994.79
2018-10-05T10:31:14.005Z,994.80
2018-10-05T10:32:14.156Z,994.80
2018-10-05T10:33:14.309Z,994.73
2018-10-05T10:34:14.496Z,994.75
2018-10-05T10:35:14.613Z,994.74
2018-10-05T10:36:14.763Z,994.71
2018-10-05T10:37:14.919Z,994.70
2018-10-05T10:38:15.072Z,994.70
2018-10-05T10:39:15.224Z,994.73
2018-10-05T10:40:15.378Z,994.73
2018-10-05T10:41:15.529Z,994.72
2018-10-05T10:42:15.685Z,994.70
2018-10-05T10:43:15.839Z,994.68
2018-10-05T10:44:15.998Z,994.67
2018-10-05T10:45:16.145Z,994.64
2018-10-05T10:46:16.298Z,994.68
2018-10-05T10:47:16.453Z,994.68
2018-10-05T10:48:16.727Z,994.63
2018-10-05T10:49:16.762Z,994.66
2018-10-05T10:50:16.916Z,994.66
2018-10-05T10:51:17.066Z,994.59
2018-10-05T10:52:17.222Z,994.63
2018-10-05T10:53:17.375Z,994.59
2018-10-05T10:54:17.559Z,994.55
2018-10-05T10:55:17.711Z,994.51
2018-10-05T10:56:17.903Z,994.50
2018-10-05T10:57:18.018Z,994.49
2018-10-05T10:58:18.171Z,994.48
2018-10-05T10:59:18.324Z,994.48
2018-10-05T11:00:18.481Z,994.40
2018-10-05T11:01:18.635Z,994.41
2018-10-05T11:02:18.787Z,994.40
2018-10-05T11:03:18.939Z,994.38
2018-10-05T11:04:19.173Z,994.32
2018-10-05T11:05:19.247Z,994.33
2018-10-05T11:06:19.399Z,994.35
2018-10-05T11:07:19.554Z,994.38
2018-10-05T11:08:19.712Z,994.36
2018-10-05T11:09:19.864Z,994.40
2018-10-05T11:10:20.014Z,994.38
2018-10-05T11:11:20.167Z,994.36
2018-10-05T11:12:20.321Z,994.34
2018-10-05T11:13:20.475Z,994.33
2018-10-05T11:14:20.630Z,994.29
2018-10-05T11:15:20.786Z,994.30
2018-10-05T11:16:20.939Z,994.29
2018-10-05T11:17:21.095Z,994.29
2018-10-05T11:18:21.252Z,994.25
2018-10-05T11:19:21.404Z,994.26
2018-10-05T11:20:21.562Z,994.24
2018-10-05T11:21:21.715Z,994.22
2018-10-05T11:22:21.866Z,994.21
2018-10-05T11:23:22.084Z,994.20
2018-10-05T11:24:22.176Z,994.15
2018-10-05T11:25:22.329Z,994.16
2018-10-05T11:26:22.485Z,994.16
2018-10-05T11:27:22.638Z,994.15
2018-10-05T11:28:22.925Z,994.12
2018-10-05T11:29:22.948Z,994.09
2018-10-05T11:30:23.100Z,994.07
2018-10-05T11:31:23.254Z,994.06
2018-10-05T11:32:23.416Z,994.03
2018-10-05T11:33:23.566Z,994.01
2018-10-05T11:34:23.720Z,993.99
2018-10-05T11:35:23.874Z,993.96
2018-10-05T11:36:24.029Z,993.95
2018-10-05T11:37:24.184Z,993.94
2018-10-05T11:38:24.342Z,993.93
2018-10-05T11:39:24.492Z,993.92
2018-10-05T11:40:24.648Z,993.91
2018-10-05T11:41:24.804Z,993.89
2018-10-05T11:42:24.957Z,993.88
2018-10-05T11:43:25.110Z,993.84
2018-10-05T11:44:25.266Z,993.82
2018-10-05T11:45:25.421Z,993.78
2018-10-05T11:46:25.601Z,993.73
2018-10-05T11:47:25.727Z,993.75
2018-10-05T11:48:25.891Z,993.69
2018-10-05T11:49:26.038Z,993.70
2018-10-05T11:50:26.221Z,993.68
2018-10-05T11:51:26.347Z,993.66
2018-10-05T11:52:26.541Z,993.67
2018-10-05T11:53:26.657Z,993.66
2018-10-05T11:54:26.814Z,993.68
2018-10-05T11:55:26.968Z,993.69
2018-10-05T11:56:27.124Z,993.67
2018-10-05T11:57:27.278Z,993.67
2018-10-05T11:58:27.433Z,993.64
2018-10-05T11:59:27.587Z,993.63
2018-10-05T12:00:27.743Z,993.66
2018-10-05T12:01:27.900Z,993.64
2018-10-05T12:02:28.113Z,993.59
2018-10-05T12:03:28.211Z,993.63
2018-10-05T12:04:28.370Z,993.59
2018-10-05T12:05:28.523Z,993.58
2018-10-05T12:06:28.682Z,993.57
2018-10-05T12:07:28.836Z,993.56
2018-10-05T12:08:28.988Z,993.55
2018-10-05T12:09:29.146Z,993.55
2018-10-05T12:10:29.301Z,993.54
2018-10-05T12:11:29.457Z,993.52
2018-10-05T12:12:29.612Z,993.50
2018-10-05T12:13:29.767Z,993.46
2018-10-05T12:14:29.924Z,993.47
2018-10-05T12:15:30.082Z,993.45
2018-10-05T12:16:30.237Z,993.43
2018-10-05T12:17:30.390Z,993.40
2018-10-05T12:18:30.546Z,993.40
2018-10-05T12:19:30.700Z,993.39
2018-10-05T12:20:30.857Z,993.37
2018-10-05T12:21:31.013Z,993.33
2018-10-05T12:22:31.189Z,993.34
2018-10-05T12:23:31.325Z,993.33
2018-10-05T12:24:31.478Z,993.31
2018-10-05T12:25:31.636Z,993.30
2018-10-05T12:26:31.810Z,993.29
2018-10-05T12:27:31.947Z,993.28
2018-10-05T12:28:32.105Z,993.29
2018-10-05T12:29:32.261Z,993.30
2018-10-05T12:30:32.419Z,993.30